This is the latest recevied weather packets stored in our database for station/object CE3TPB-1. If no packets are shown the sender has not sent any weather packets the latest 10 day(s).
| Time | Temp. | Humidity | Pressure | Rain* | Wind** | Luminosity | Snow |
|---|---|---|---|---|---|---|---|
| 1788295902 | 28.33° C | 33% | 1020.2 hPa | - | - | - | - |
| 1788292900 | 28.89° C | 33% | 1023.4 hPa | - | - | - | - |
| 1788289715 | 28.89° C | 33% | 1022.6 hPa | - | - | - | - |
| 1788289114 | 28.89° C | 33% | 1024.3 hPa | - | - | - | - |
| 1788287913 | 28.89° C | 33% | 1024.2 hPa | - | - | - | - |
| 1788287313 | 28.89° C | 32% | 1026.3 hPa | - | - | - | - |
| 1788286712 | 28.89° C | 33% | 1022.1 hPa | - | - | - | - |
| 1788286112 | 28.89° C | 33% | 1023.3 hPa | - | - | - | - |
| 1788284310 | 28.33° C | 33% | 1021.9 hPa | - | - | - | - |
| 1788283110 | 28.33° C | 33% | 1025.2 hPa | - | - | - | - |
| 1788282509 | 28.89° C | 33% | 1026.9 hPa | - | - | - | - |
| 1788280708 | 29.44° C | 33% | 1026.2 hPa | - | - | - | - |
| 1788280108 | 30° C | 31% | 1024.9 hPa | - | - | - | - |
| 1788275685 | 23.89° C | 34% | 1027.4 hPa | - | - | - | - |
| 1788272585 | 20° C | 36% | 1026.2 hPa | - | - | - | - |
| 1788271985 | 18.89° C | 36% | 1025.8 hPa | - | - | - | - |
| 1788248414 | 19.44° C | 35% | 1026.2 hPa | - | - | - | - |
| 1788247813 | 20° C | 35% | 1024 hPa | - | - | - | - |
| 1788247212 | 20° C | 35% | 1027.8 hPa | - | - | - | - |
| 1788246612 | 20.56° C | 34% | 1028.6 hPa | - | - | - | - |
| 1788245411 | 20.56° C | 34% | 1026 hPa | - | - | - | - |
| 1788239408 | 20.56° C | 34% | 1028.6 hPa | - | - | - | - |
| 1788238808 | 20.56° C | 34% | 1026.2 hPa | - | - | - | - |
| 1788238207 | 20.56° C | 34% | 1024.8 hPa | - | - | - | - |
| 1788237606 | 20.56° C | 34% | 1026.1 hPa | - | - | - | - |
* Rain since midnight (hover to see other rain measurements)
** Current wind speed in m/s (hover to see current wind gust speed)